Time;durP1;ratioP1;P1;durP2;ratioP2;P2;SDS_P1;SDS_P2;PMS_P1;PMS_P2;Temp;Humidity;BMP_temperature;BMP_pressure;BME280_temperature;BME280_humidity;BME280_pressure;Samples;Min_cycle;Max_cycle;Signal;HPM_P1;HPM_P2
2022/12/12 00:01:15;;;;;;;;;28.67;28.67;;;;;;;;5079823;28;8877;-74
2022/12/12 00:03:43;;;;;;;;;27.67;27.33;;;;;;;;5080262;28;8829;-75
2022/12/12 00:06:10;;;;;;;;;31.67;31.67;;;;;;;;5077085;28;9281;-75
2022/12/12 00:08:38;;;;;;;;;31.67;27.67;;;;;;;;5083052;28;8834;-75
2022/12/12 00:11:07;;;;;;;;;26.33;25.33;;;;;;;;5082489;28;8872;-76
2022/12/12 00:13:35;;;;;;;;;27.00;27.00;;;;;;;;5080816;28;10348;-74
2022/12/12 00:16:04;;;;;;;;;24.33;24.33;;;;;;;;5079768;28;8902;-75
2022/12/12 00:18:32;;;;;;;;;25.33;21.67;;;;;;;;5081705;28;8864;-75
2022/12/12 00:21:00;;;;;;;;;28.00;28.00;;;;;;;;5082134;28;8861;-76
2022/12/12 00:23:27;;;;;;;;;26.33;22.00;;;;;;;;5084304;28;8864;-76
2022/12/12 00:25:57;;;;;;;;;22.33;21.33;;;;;;;;5085585;28;8832;-75
2022/12/12 00:28:27;;;;;;;;;23.33;23.33;;;;;;;;5086730;28;8834;-76
2022/12/12 00:30:54;;;;;;;;;27.00;27.00;;;;;;;;5086777;28;8876;-76
2022/12/12 00:33:22;;;;;;;;;29.67;27.67;;;;;;;;5087888;28;8852;-75
2022/12/12 00:35:52;;;;;;;;;21.00;21.00;;;;;;;;5087172;28;8848;-74
2022/12/12 00:38:21;;;;;;;;;26.67;26.67;;;;;;;;5084491;28;8848;-74
2022/12/12 00:40:52;;;;;;;;;33.00;33.00;;;;;;;;5084909;28;8981;-73
2022/12/12 00:43:20;;;;;;;;;27.67;27.67;;;;;;;;5084248;28;8833;-75
2022/12/12 00:45:51;;;;;;;;;24.67;24.67;;;;;;;;5084435;28;8867;-75
2022/12/12 00:48:18;;;;;;;;;24.33;24.33;;;;;;;;5088529;28;8856;-75
2022/12/12 00:50:46;;;;;;;;;25.67;24.67;;;;;;;;5087879;28;8868;-75
2022/12/12 00:53:15;;;;;;;;;33.00;31.67;;;;;;;;5085814;28;8826;-75
2022/12/12 00:55:43;;;;;;;;;21.00;21.00;;;;;;;;5083192;28;9020;-76
2022/12/12 00:58:10;;;;;;;;;29.00;29.00;;;;;;;;5082166;28;8940;-75
2022/12/12 01:00:40;;;;;;;;;24.00;24.00;;;;;;;;5084486;28;8838;-76
2022/12/12 01:03:09;;;;;;;;;23.33;21.33;;;;;;;;5080216;28;8982;-75
2022/12/12 01:05:37;;;;;;;;;29.67;26.67;;;;;;;;5081898;28;8859;-75
2022/12/12 01:08:04;;;;;;;;;28.00;27.33;;;;;;;;5086318;28;8857;-75
2022/12/12 01:10:33;;;;;;;;;39.00;39.00;;;;;;;;5085442;28;8830;-75
2022/12/12 01:13:01;;;;;;;;;28.33;28.33;;;;;;;;5084548;28;8836;-75
2022/12/12 01:15:28;;;;;;;;;29.33;29.33;;;;;;;;5087241;28;8834;-74
2022/12/12 01:17:56;;;;;;;;;38.67;34.67;;;;;;;;5079993;28;8836;-75
2022/12/12 01:20:27;;;;;;;;;24.00;24.00;;;;;;;;5081876;28;8838;-75
2022/12/12 01:22:55;;;;;;;;;4.33;4.33;;;;;;;;5083222;28;8974;-75
2022/12/12 01:25:23;;;;;;;;;33.00;30.33;;;;;;;;5085445;28;8849;-76
2022/12/12 01:27:53;;;;;;;;;32.67;32.33;;;;;;;;5085172;28;8871;-78
2022/12/12 01:30:23;;;;;;;;;32.00;26.00;;;;;;;;5086120;28;8830;-76
2022/12/12 01:32:53;;;;;;;;;32.67;30.33;;;;;;;;5084954;28;8828;-74
2022/12/12 01:35:21;;;;;;;;;25.67;24.00;;;;;;;;5082479;28;8885;-76
2022/12/12 01:37:53;;;;;;;;;27.00;27.00;;;;;;;;5083121;28;8837;-75
2022/12/12 01:40:23;;;;;;;;;27.67;27.67;;;;;;;;5079573;28;8857;-76
2022/12/12 01:42:53;;;;;;;;;23.67;23.67;;;;;;;;5085146;28;8850;-75
2022/12/12 01:46:01;;;;;;;;;42.33;40.00;;;;;;;;5083191;28;8838;-76
2022/12/12 01:48:33;;;;;;;;;39.00;36.33;;;;;;;;5064420;28;8977;-76
2022/12/12 01:51:05;;;;;;;;;20.33;20.33;;;;;;;;5081716;28;8862;-76
2022/12/12 01:53:34;;;;;;;;;23.33;23.33;;;;;;;;5080998;28;9601;-75
2022/12/12 01:56:04;;;;;;;;;23.00;23.00;;;;;;;;5112348;27;8995;-75
2022/12/12 01:58:33;;;;;;;;;30.67;30.67;;;;;;;;5080402;28;8871;-75
2022/12/12 02:01:01;;;;;;;;;31.33;31.33;;;;;;;;5081136;28;8844;-76
2022/12/12 02:03:28;;;;;;;;;28.00;25.00;;;;;;;;5084569;28;8898;-76
2022/12/12 02:05:59;;;;;;;;;24.33;24.33;;;;;;;;5081613;28;8826;-76
2022/12/12 02:08:27;;;;;;;;;31.33;30.33;;;;;;;;5083211;28;8840;-75
2022/12/12 02:10:56;;;;;;;;;23.00;23.00;;;;;;;;5082099;28;8901;-76
2022/12/12 02:13:28;;;;;;;;;32.33;29.67;;;;;;;;5084579;28;8833;-75
2022/12/12 02:16:04;;;;;;;;;17.00;17.00;;;;;;;;5082290;28;8840;-76
2022/12/12 02:18:38;;;;;;;;;19.00;19.00;;;;;;;;5083154;28;8859;-75
2022/12/12 02:21:11;;;;;;;;;20.33;20.33;;;;;;;;5082514;28;8868;-75
2022/12/12 02:24:20;;;;;;;;;24.33;24.00;;;;;;;;5081329;28;8802;-75
2022/12/12 02:27:23;;;;;;;;;31.00;29.33;;;;;;;;5081739;28;8848;-75
2022/12/12 02:30:11;;;;;;;;;25.67;23.67;;;;;;;;5082009;28;8824;-77
2022/12/12 02:32:54;;;;;;;;;24.67;21.33;;;;;;;;5084117;28;8867;-74
2022/12/12 02:35:30;;;;;;;;;25.33;23.67;;;;;;;;5083316;28;8982;-74
2022/12/12 02:38:06;;;;;;;;;25.33;23.33;;;;;;;;5079406;28;8871;-74
2022/12/12 02:40:37;;;;;;;;;22.67;22.67;;;;;;;;5080752;28;8842;-74
2022/12/12 02:43:09;;;;;;;;;25.33;25.33;;;;;;;;5084164;28;8964;-74
2022/12/12 02:45:41;;;;;;;;;29.00;24.00;;;;;;;;5083255;28;8859;-74
2022/12/12 02:48:13;;;;;;;;;20.33;20.00;;;;;;;;5085172;28;8844;-74
2022/12/12 02:50:43;;;;;;;;;22.00;22.00;;;;;;;;5078730;28;8834;-75
2022/12/12 02:53:11;;;;;;;;;22.00;20.33;;;;;;;;5081395;28;8854;-75
2022/12/12 02:55:38;;;;;;;;;20.00;20.00;;;;;;;;5080563;28;8993;-75
2022/12/12 02:58:06;;;;;;;;;26.33;26.33;;;;;;;;5082627;28;9646;-74
2022/12/12 03:00:42;;;;;;;;;26.67;26.67;;;;;;;;5078169;28;8875;-75
2022/12/12 03:09:14;;;;;;;;;23.00;22.67;;;;;;;;5082837;28;8836;-75
2022/12/12 03:11:55;;;;;;;;;25.00;22.67;;;;;;;;5080162;28;8849;-75
2022/12/12 03:14:26;;;;;;;;;22.67;22.67;;;;;;;;5064889;28;8913;-75
2022/12/12 03:17:01;;;;;;;;;22.00;22.00;;;;;;;;5080924;28;8872;-75
2022/12/12 03:19:34;;;;;;;;;17.00;17.00;;;;;;;;5083764;28;9632;-75
2022/12/12 03:22:06;;;;;;;;;15.33;15.33;;;;;;;;5082747;28;8832;-75
2022/12/12 03:24:36;;;;;;;;;23.00;19.00;;;;;;;;5087612;28;9623;-75
2022/12/12 03:27:09;;;;;;;;;15.00;15.00;;;;;;;;5081976;28;8836;-75
2022/12/12 03:29:40;;;;;;;;;21.33;21.33;;;;;;;;5081318;28;8837;-75
2022/12/12 03:32:11;;;;;;;;;23.67;23.67;;;;;;;;5082164;28;8832;-75
2022/12/12 03:34:42;;;;;;;;;20.33;20.33;;;;;;;;5082361;28;8887;-75
2022/12/12 03:37:13;;;;;;;;;17.67;17.67;;;;;;;;5081712;28;8849;-75
2022/12/12 03:39:44;;;;;;;;;19.33;19.33;;;;;;;;5082051;28;8887;-75
2022/12/12 03:42:22;;;;;;;;;18.67;18.67;;;;;;;;5082901;28;8828;-75
2022/12/12 03:44:53;;;;;;;;;27.00;24.33;;;;;;;;5081638;28;8864;-75
2022/12/12 03:47:24;;;;;;;;;15.67;15.67;;;;;;;;5078898;28;8852;-75
2022/12/12 03:49:57;;;;;;;;;25.00;25.00;;;;;;;;5080887;28;10125;-76
2022/12/12 03:52:28;;;;;;;;;23.67;21.00;;;;;;;;5083232;28;8848;-75
2022/12/12 03:55:00;;;;;;;;;18.33;15.33;;;;;;;;5082444;28;8840;-76
2022/12/12 03:57:32;;;;;;;;;14.00;14.00;;;;;;;;5086443;28;9632;-76
2022/12/12 04:00:04;;;;;;;;;17.67;17.67;;;;;;;;5087466;28;8848;-76
2022/12/12 04:02:35;;;;;;;;;23.00;23.00;;;;;;;;5086611;28;8958;-75
2022/12/12 04:05:13;;;;;;;;;14.33;14.33;;;;;;;;5082988;28;8824;-75
2022/12/12 04:07:43;;;;;;;;;24.00;23.33;;;;;;;;5084569;28;8856;-75
2022/12/12 04:13:02;;;;;;;;;18.67;16.67;;;;;;;;5082961;28;8958;-75
2022/12/12 04:15:53;;;;;;;;;18.00;17.00;;;;;;;;5082951;28;9734;-75
2022/12/12 04:18:30;;;;;;;;;18.00;16.00;;;;;;;;5081845;28;8840;-76
2022/12/12 04:23:59;;;;;;;;;18.00;18.00;;;;;;;;5081550;28;8832;-75
2022/12/12 04:26:41;;;;;;;;;14.33;13.67;;;;;;;;5083696;28;9607;-75
2022/12/12 04:29:33;;;;;;;;;16.67;16.67;;;;;;;;5083631;28;8866;-75
2022/12/12 04:32:07;;;;;;;;;22.67;22.67;;;;;;;;5085265;28;8838;-75
2022/12/12 04:34:39;;;;;;;;;19.00;18.67;;;;;;;;5085221;28;8816;-74
2022/12/12 04:37:10;;;;;;;;;15.67;15.67;;;;;;;;5086238;28;8854;-74
2022/12/12 04:39:39;;;;;;;;;19.67;18.00;;;;;;;;5086548;28;9734;-74
2022/12/12 04:42:09;;;;;;;;;13.33;13.33;;;;;;;;5085961;28;8833;-74
2022/12/12 04:44:38;;;;;;;;;15.33;15.33;;;;;;;;5085437;28;9006;-75
2022/12/12 04:47:07;;;;;;;;;23.33;23.33;;;;;;;;5087586;28;8894;-75
2022/12/12 04:49:35;;;;;;;;;22.00;22.00;;;;;;;;5085584;28;8826;-75
2022/12/12 04:52:05;;;;;;;;;19.67;19.67;;;;;;;;5085569;28;8866;-75
2022/12/12 04:54:39;;;;;;;;;14.67;14.00;;;;;;;;5084916;28;8840;-75
2022/12/12 04:57:10;;;;;;;;;19.00;19.00;;;;;;;;5084577;28;8868;-75
2022/12/12 04:59:38;;;;;;;;;19.33;19.33;;;;;;;;5083862;28;8899;-74
2022/12/12 05:02:13;;;;;;;;;22.00;22.00;;;;;;;;5082322;28;8807;-75
2022/12/12 05:04:48;;;;;;;;;24.67;22.00;;;;;;;;5086233;28;8836;-74
2022/12/12 05:07:21;;;;;;;;;19.00;19.00;;;;;;;;5083922;28;8977;-75
2022/12/12 05:09:53;;;;;;;;;17.00;16.00;;;;;;;;5083966;28;8870;-76
2022/12/12 05:12:23;;;;;;;;;19.00;19.00;;;;;;;;5085146;28;8963;-75
2022/12/12 05:14:53;;;;;;;;;22.33;22.33;;;;;;;;5084979;28;8820;-75
2022/12/12 05:17:27;;;;;;;;;16.33;15.67;;;;;;;;5083537;28;8878;-74
2022/12/12 05:19:55;;;;;;;;;22.67;19.00;;;;;;;;5085267;28;9622;-74
2022/12/12 05:22:22;;;;;;;;;25.33;25.33;;;;;;;;5079591;28;8852;-74
2022/12/12 05:24:52;;;;;;;;;16.00;16.00;;;;;;;;5085209;28;8860;-75
2022/12/12 05:27:20;;;;;;;;;17.00;17.00;;;;;;;;5083349;28;8878;-75
2022/12/12 05:29:47;;;;;;;;;21.33;20.67;;;;;;;;5085314;28;8868;-74
2022/12/12 05:32:14;;;;;;;;;18.00;18.00;;;;;;;;5084436;28;8813;-75
2022/12/12 05:34:42;;;;;;;;;18.00;18.00;;;;;;;;5087236;28;8970;-75
2022/12/12 05:37:09;;;;;;;;;18.00;18.00;;;;;;;;5084116;28;8891;-75
2022/12/12 05:39:37;;;;;;;;;20.67;19.67;;;;;;;;5084899;28;8915;-76
2022/12/12 05:42:06;;;;;;;;;13.00;13.00;;;;;;;;5083970;28;8875;-75
2022/12/12 05:44:34;;;;;;;;;20.00;17.33;;;;;;;;5083877;28;9614;-76
2022/12/12 05:47:01;;;;;;;;;17.00;17.00;;;;;;;;5082238;28;8845;-76
2022/12/12 05:49:28;;;;;;;;;22.67;22.67;;;;;;;;5081689;28;8844;-75
2022/12/12 05:51:56;;;;;;;;;19.33;19.33;;;;;;;;5083158;28;8891;-76
2022/12/12 05:54:23;;;;;;;;;22.00;20.33;;;;;;;;5084328;28;8864;-75
2022/12/12 05:56:51;;;;;;;;;19.00;18.33;;;;;;;;5082949;28;8879;-75
2022/12/12 05:59:20;;;;;;;;;21.00;21.00;;;;;;;;5084980;28;9713;-75
2022/12/12 06:01:47;;;;;;;;;22.00;21.00;;;;;;;;5083495;28;8972;-75
2022/12/12 06:04:15;;;;;;;;;16.00;16.00;;;;;;;;5078459;28;8864;-75
2022/12/12 06:06:42;;;;;;;;;17.33;16.67;;;;;;;;5082968;28;8836;-75
2022/12/12 06:09:09;;;;;;;;;25.00;25.00;;;;;;;;5079395;28;8985;-75
2022/12/12 06:11:37;;;;;;;;;29.67;25.67;;;;;;;;5081592;28;8855;-75
2022/12/12 06:14:05;;;;;;;;;22.00;21.00;;;;;;;;5083662;28;8840;-75
2022/12/12 06:16:35;;;;;;;;;20.00;20.00;;;;;;;;5114048;27;8840;-75
2022/12/12 06:19:03;;;;;;;;;22.00;20.00;;;;;;;;5113054;27;8841;-75
2022/12/12 06:21:31;;;;;;;;;26.33;26.33;;;;;;;;5080891;28;8814;-75
2022/12/12 06:23:58;;;;;;;;;22.00;22.00;;;;;;;;5080280;28;8864;-76
2022/12/12 06:26:26;;;;;;;;;23.67;23.67;;;;;;;;5081424;28;8882;-76
2022/12/12 06:28:53;;;;;;;;;17.33;17.33;;;;;;;;5115002;27;8870;-76
2022/12/12 06:31:21;;;;;;;;;26.33;26.33;;;;;;;;5083890;28;8821;-76
2022/12/12 06:33:50;;;;;;;;;29.00;29.00;;;;;;;;5083021;28;8872;-76
2022/12/12 06:36:22;;;;;;;;;26.00;26.00;;;;;;;;5083934;28;8840;-74
2022/12/12 06:38:54;;;;;;;;;24.00;22.67;;;;;;;;5085398;28;8943;-75
2022/12/12 06:41:23;;;;;;;;;31.67;30.33;;;;;;;;5084998;28;8833;-75
2022/12/12 06:43:52;;;;;;;;;28.00;28.00;;;;;;;;5083499;28;8838;-75
2022/12/12 06:46:22;;;;;;;;;31.67;30.67;;;;;;;;5079203;28;8802;-76
2022/12/12 06:49:10;;;;;;;;;;;;;;;;;;;;;
2022/12/12 06:52:26;;;;;;;;;38.00;33.33;;;;;;;;5085102;28;8945;-76
2022/12/12 06:54:59;;;;;;;;;37.67;37.33;;;;;;;;5090324;28;8844;-78
2022/12/12 06:57:34;;;;;;;;;45.33;42.67;;;;;;;;5088993;28;8859;-76
2022/12/12 07:00:03;;;;;;;;;28.33;28.33;;;;;;;;5085527;28;8974;-80
2022/12/12 07:02:32;;;;;;;;;29.33;29.33;;;;;;;;5082190;28;8844;-80
2022/12/12 07:05:01;;;;;;;;;29.33;28.33;;;;;;;;5084982;28;8836;-80
2022/12/12 07:07:31;;;;;;;;;35.67;35.67;;;;;;;;5082408;28;8956;-77
2022/12/12 07:09:59;;;;;;;;;38.00;35.67;;;;;;;;5081386;28;8856;-76
2022/12/12 07:12:28;;;;;;;;;34.67;34.67;;;;;;;;5119214;27;8833;-77
2022/12/12 07:14:58;;;;;;;;;33.33;30.67;;;;;;;;5089546;28;8980;-76
2022/12/12 07:17:26;;;;;;;;;38.33;34.00;;;;;;;;5112129;27;8864;-77
2022/12/12 07:19:54;;;;;;;;;35.00;33.00;;;;;;;;5083452;28;8861;-76
2022/12/12 07:22:23;;;;;;;;;30.33;29.67;;;;;;;;5085459;28;8854;-76
2022/12/12 07:24:54;;;;;;;;;31.50;29.50;;;;;;;;5082936;28;8880;-76
2022/12/12 07:27:25;;;;;;;;;26.00;26.00;;;;;;;;5081602;28;8821;-77
2022/12/12 07:29:53;;;;;;;;;31.00;31.00;;;;;;;;5080829;28;8826;-78
2022/12/12 07:32:20;;;;;;;;;28.33;28.33;;;;;;;;5076491;28;8916;-77
2022/12/12 07:34:50;;;;;;;;;34.00;34.00;;;;;;;;5080894;28;8867;-74
2022/12/12 07:37:19;;;;;;;;;35.33;34.00;;;;;;;;5078442;28;8843;-77
2022/12/12 07:39:49;;;;;;;;;34.33;33.00;;;;;;;;5085321;28;8855;-77
2022/12/12 07:42:17;;;;;;;;;44.33;40.67;;;;;;;;5085535;28;8832;-76
2022/12/12 07:44:45;;;;;;;;;34.33;34.33;;;;;;;;5083905;28;8842;-77
2022/12/12 07:47:13;;;;;;;;;47.00;42.67;;;;;;;;5085756;28;8999;-78
2022/12/12 07:49:53;;;;;;;;;47.67;38.00;;;;;;;;5064159;28;8872;-75
2022/12/12 07:52:21;;;;;;;;;26.33;26.33;;;;;;;;5081482;28;8860;-79
2022/12/12 07:54:51;;;;;;;;;35.00;35.00;;;;;;;;5081999;28;8875;-74
2022/12/12 07:57:20;;;;;;;;;33.33;33.33;;;;;;;;5079579;28;8825;-78
2022/12/12 07:59:48;;;;;;;;;25.33;24.67;;;;;;;;5079653;28;8826;-76
2022/12/12 08:02:16;;;;;;;;;34.33;34.33;;;;;;;;5076418;28;8955;-77
2022/12/12 08:04:44;;;;;;;;;34.67;34.67;;;;;;;;5078842;28;8860;-77
2022/12/12 08:07:13;;;;;;;;;34.00;31.33;;;;;;;;5078450;28;8821;-75
2022/12/12 08:09:41;;;;;;;;;22.00;21.00;;;;;;;;5080928;28;8870;-74
2022/12/12 08:12:10;;;;;;;;;33.00;31.33;;;;;;;;5111194;27;8836;-76
2022/12/12 08:14:38;;;;;;;;;33.67;32.67;;;;;;;;5112014;27;8841;-69
2022/12/12 08:17:06;;;;;;;;;34.00;34.00;;;;;;;;5080446;28;8852;-70
2022/12/12 08:19:33;;;;;;;;;41.33;41.33;;;;;;;;5079184;28;8871;-71
2022/12/12 08:22:00;;;;;;;;;41.00;38.67;;;;;;;;5074663;28;8850;-72
2022/12/12 08:24:28;;;;;;;;;41.00;41.00;;;;;;;;5082519;28;8876;-71
2022/12/12 08:26:57;;;;;;;;;49.00;44.00;;;;;;;;5079905;28;8909;-72
2022/12/12 08:29:26;;;;;;;;;37.67;37.67;;;;;;;;5062655;28;9047;-71
2022/12/12 08:31:54;;;;;;;;;46.67;45.00;;;;;;;;5108702;27;8836;-72
2022/12/12 08:34:22;;;;;;;;;40.33;37.33;;;;;;;;5082716;28;8876;-70
2022/12/12 08:36:51;;;;;;;;;30.33;30.33;;;;;;;;5079074;28;8841;-71
2022/12/12 08:39:19;;;;;;;;;22.33;22.33;;;;;;;;5081945;28;9702;-71
2022/12/12 08:41:48;;;;;;;;;28.33;28.33;;;;;;;;5081094;28;8868;-71
2022/12/12 08:44:17;;;;;;;;;30.33;30.33;;;;;;;;5086341;28;8913;-71
2022/12/12 08:46:47;;;;;;;;;39.33;37.67;;;;;;;;5086070;28;8836;-72
2022/12/12 08:49:16;;;;;;;;;29.67;28.00;;;;;;;;5080987;28;8959;-71
2022/12/12 08:51:43;;;;;;;;;44.00;42.67;;;;;;;;5081612;28;8859;-70
2022/12/12 08:54:12;;;;;;;;;37.00;36.00;;;;;;;;5081367;28;8866;-70
2022/12/12 08:56:45;;;;;;;;;31.33;29.67;;;;;;;;5078491;28;8848;-71
2022/12/12 08:59:13;;;;;;;;;32.67;31.33;;;;;;;;5084484;28;8961;-71
2022/12/12 09:01:42;;;;;;;;;30.00;30.00;;;;;;;;5080596;28;8880;-71
2022/12/12 09:04:11;;;;;;;;;30.33;29.67;;;;;;;;5081891;28;9230;-71
2022/12/12 09:06:39;;;;;;;;;26.33;26.33;;;;;;;;5080516;28;8870;-71
2022/12/12 09:09:06;;;;;;;;;29.67;27.67;;;;;;;;5081837;28;8858;-70
2022/12/12 09:11:34;;;;;;;;;33.33;33.33;;;;;;;;5080683;28;8875;-72
2022/12/12 09:14:02;;;;;;;;;30.67;29.67;;;;;;;;5081989;28;8826;-71
2022/12/12 09:16:29;;;;;;;;;27.67;27.67;;;;;;;;5080004;28;8860;-73
2022/12/12 09:18:58;;;;;;;;;27.67;27.67;;;;;;;;5086592;28;10277;-72
2022/12/12 09:21:27;;;;;;;;;25.00;23.33;;;;;;;;5084521;28;8849;-73
2022/12/12 09:23:55;;;;;;;;;26.33;26.33;;;;;;;;5084558;28;8865;-70
2022/12/12 09:26:23;;;;;;;;;36.00;36.00;;;;;;;;5083377;28;8987;-73
2022/12/12 09:28:51;;;;;;;;;30.67;30.67;;;;;;;;5085533;28;8975;-72
2022/12/12 09:31:18;;;;;;;;;36.67;36.67;;;;;;;;5083827;28;8954;-72
2022/12/12 09:33:46;;;;;;;;;36.67;34.33;;;;;;;;5083938;28;8848;-71
2022/12/12 09:36:13;;;;;;;;;27.33;27.00;;;;;;;;5082214;28;8846;-71
2022/12/12 09:38:43;;;;;;;;;33.67;32.67;;;;;;;;5085032;28;8822;-72
2022/12/12 09:41:16;;;;;;;;;42.67;36.67;;;;;;;;5083309;28;8887;-72
2022/12/12 09:43:51;;;;;;;;;33.67;32.33;;;;;;;;5084203;28;8979;-71
2022/12/12 09:46:31;;;;;;;;;30.33;26.33;;;;;;;;5083495;28;8952;-71
2022/12/12 09:49:06;;;;;;;;;28.67;28.67;;;;;;;;5080238;28;8964;-72
2022/12/12 09:51:36;;;;;;;;;25.00;21.67;;;;;;;;5078821;28;8847;-71
2022/12/12 09:54:05;;;;;;;;;21.67;21.67;;;;;;;;5082962;28;9251;-71
2022/12/12 09:56:40;;;;;;;;;23.33;21.67;;;;;;;;5115118;27;8883;-71
2022/12/12 09:59:15;;;;;;;;;22.00;22.00;;;;;;;;5082441;28;8881;-72
2022/12/12 10:01:53;;;;;;;;;30.67;30.67;;;;;;;;5082462;28;8844;-69
2022/12/12 10:04:28;;;;;;;;;23.33;23.33;;;;;;;;5082693;28;8892;-71
2022/12/12 10:07:00;;;;;;;;;25.00;25.00;;;;;;;;5081453;28;8870;-71
2022/12/12 10:09:52;;;;;;;;;31.67;30.67;;;;;;;;5116712;27;8853;-70
2022/12/12 10:12:21;;;;;;;;;34.33;33.33;;;;;;;;5072482;28;9670;-71
2022/12/12 10:14:53;;;;;;;;;23.33;23.33;;;;;;;;5081330;28;8988;-70
2022/12/12 10:17:25;;;;;;;;;22.33;21.00;;;;;;;;5081219;28;8848;-74
2022/12/12 10:19:56;;;;;;;;;29.33;26.33;;;;;;;;5084113;28;8921;-75
2022/12/12 10:22:30;;;;;;;;;27.33;25.33;;;;;;;;5078703;28;8842;-76
2022/12/12 10:25:06;;;;;;;;;21.67;21.67;;;;;;;;5081474;28;9611;-69
2022/12/12 10:27:33;;;;;;;;;30.33;29.33;;;;;;;;5083358;28;8850;-71
2022/12/12 10:30:10;;;;;;;;;27.67;27.67;;;;;;;;5078778;28;8917;-75
2022/12/12 10:32:43;;;;;;;;;34.00;32.67;;;;;;;;5083378;28;8871;-74
2022/12/12 10:35:17;;;;;;;;;34.00;32.00;;;;;;;;5081708;28;8921;-73
2022/12/12 10:37:55;;;;;;;;;28.00;28.00;;;;;;;;5076612;28;8830;-74
2022/12/12 10:40:33;;;;;;;;;27.00;25.00;;;;;;;;5073275;28;9626;-74
2022/12/12 10:43:05;;;;;;;;;31.33;31.33;;;;;;;;5077223;28;8979;-75
2022/12/12 10:46:09;;;;;;;;;31.67;31.67;;;;;;;;5080285;28;8843;-71
2022/12/12 10:48:36;;;;;;;;;29.33;27.33;;;;;;;;5077644;28;9084;-73
2022/12/12 10:51:10;;;;;;;;;26.67;26.67;;;;;;;;5079347;28;8830;-72
2022/12/12 10:53:39;;;;;;;;;27.33;27.33;;;;;;;;5112765;27;8836;-72
2022/12/12 10:56:12;;;;;;;;;23.33;23.33;;;;;;;;5081844;28;8857;-70
2022/12/12 10:58:42;;;;;;;;;30.00;29.33;;;;;;;;5081648;28;8851;-72
2022/12/12 11:01:34;;;;;;;;;25.33;25.33;;;;;;;;5082506;28;8866;-75
2022/12/12 11:04:03;;;;;;;;;33.33;32.33;;;;;;;;5062729;28;8856;-76
2022/12/12 11:06:32;;;;;;;;;44.00;36.33;;;;;;;;5075298;28;8844;-76
2022/12/12 11:09:10;;;;;;;;;43.67;43.00;;;;;;;;5060792;28;8852;-76
2022/12/12 11:11:39;;;;;;;;;30.67;30.67;;;;;;;;5079328;28;9649;-75
2022/12/12 11:14:23;;;;;;;;;27.67;27.67;;;;;;;;5088517;28;8886;-77
2022/12/12 11:16:54;;;;;;;;;31.33;30.33;;;;;;;;5076823;28;8851;-78
2022/12/12 11:19:23;;;;;;;;;36.00;34.67;;;;;;;;5085675;28;8964;-81
2022/12/12 11:21:51;;;;;;;;;32.33;31.00;;;;;;;;5080273;28;8875;-81
2022/12/12 11:24:21;;;;;;;;;30.33;27.33;;;;;;;;5082824;28;8902;-76
2022/12/12 11:26:59;;;;;;;;;29.67;29.67;;;;;;;;5085077;28;8844;-76
2022/12/12 11:29:32;;;;;;;;;32.33;32.33;;;;;;;;5083268;28;9014;-78
2022/12/12 11:31:59;;;;;;;;;26.00;26.00;;;;;;;;5077232;28;8865;-78
2022/12/12 11:34:30;;;;;;;;;26.33;25.67;;;;;;;;5077492;28;8828;-82
2022/12/12 11:36:59;;;;;;;;;23.33;23.33;;;;;;;;5082098;28;8832;-73
2022/12/12 11:39:31;;;;;;;;;25.00;25.00;;;;;;;;5081304;28;8852;-74
2022/12/12 11:42:02;;;;;;;;;35.00;35.00;;;;;;;;5081561;28;8837;-71
2022/12/12 11:44:37;;;;;;;;;29.67;28.00;;;;;;;;5081458;28;8902;-74
2022/12/12 11:47:37;;;;;;;;;32.67;29.67;;;;;;;;5076042;28;8857;-72
2022/12/12 11:50:17;;;;;;;;;30.00;30.00;;;;;;;;5039744;28;8829;-71
2022/12/12 11:52:45;;;;;;;;;30.33;27.00;;;;;;;;5076758;28;8832;-72
2022/12/12 11:55:15;;;;;;;;;32.00;27.67;;;;;;;;5076888;28;9009;-73
2022/12/12 11:57:57;;;;;;;;;26.33;24.00;;;;;;;;5076898;28;8822;-73
2022/12/12 12:00:25;;;;;;;;;35.33;31.00;;;;;;;;5078500;28;8848;-72
2022/12/12 12:03:17;;;;;;;;;44.67;40.33;;;;;;;;5081622;28;8859;-72
2022/12/12 12:05:55;;;;;;;;;34.00;33.00;;;;;;;;5072034;28;8836;-72
2022/12/12 12:08:38;;;;;;;;;37.00;33.33;;;;;;;;5074549;28;8838;-73
2022/12/12 12:11:15;;;;;;;;;35.33;29.67;;;;;;;;5081942;28;8874;-74
2022/12/12 12:14:03;;;;;;;;;33.00;28.67;;;;;;;;5079352;28;8832;-72
2022/12/12 12:16:39;;;;;;;;;30.00;26.33;;;;;;;;5079366;28;8839;-74
2022/12/12 12:19:16;;;;;;;;;19.33;12.67;;;;;;;;5077643;28;8870;-72
2022/12/12 12:21:55;;;;;;;;;24.33;22.67;;;;;;;;5081387;28;8875;-73
2022/12/12 12:24:49;;;;;;;;;21.00;21.00;;;;;;;;5079566;28;8869;-74
2022/12/12 12:27:19;;;;;;;;;26.67;24.67;;;;;;;;5080856;28;8941;-74
2022/12/12 12:30:27;;;;;;;;;26.00;20.33;;;;;;;;5082837;28;9762;-74
2022/12/12 12:33:14;;;;;;;;;27.00;23.00;;;;;;;;5080906;28;8851;-73
2022/12/12 12:35:49;;;;;;;;;29.67;20.33;;;;;;;;5084240;28;8852;-73
2022/12/12 12:38:26;;;;;;;;;27.67;23.67;;;;;;;;5080309;28;11538;-74
2022/12/12 12:41:13;;;;;;;;;27.00;26.33;;;;;;;;5083469;28;11581;-72
2022/12/12 12:43:56;;;;;;;;;26.67;24.00;;;;;;;;5078863;28;11584;-71
2022/12/12 12:46:33;;;;;;;;;28.33;28.00;;;;;;;;5084068;28;11582;-74
2022/12/12 12:49:05;;;;;;;;;33.67;24.33;;;;;;;;5080619;28;11556;-73
2022/12/12 12:51:37;;;;;;;;;24.75;24.25;;;;;;;;5081663;28;11663;-74
2022/12/12 12:54:07;;;;;;;;;32.00;28.00;;;;;;;;5079067;28;11570;-72
2022/12/12 12:56:39;;;;;;;;;22.75;20.75;;;;;;;;5079770;28;11709;-72
2022/12/12 12:59:12;;;;;;;;;31.50;28.50;;;;;;;;5084984;28;11545;-72
2022/12/12 13:01:46;;;;;;;;;32.50;26.25;;;;;;;;5082211;28;12318;-70
2022/12/12 13:04:17;;;;;;;;;23.50;23.50;;;;;;;;5081626;28;11724;-70
2022/12/12 13:06:50;;;;;;;;;31.50;30.25;;;;;;;;5081679;28;11548;-69
2022/12/12 13:09:27;;;;;;;;;24.75;22.50;;;;;;;;5084433;28;12369;-71
2022/12/12 13:12:02;;;;;;;;;28.50;26.00;;;;;;;;5081754;28;11705;-70
2022/12/12 13:14:39;;;;;;;;;29.75;25.50;;;;;;;;5081836;28;11551;-70
2022/12/12 13:17:12;;;;;;;;;36.25;31.25;;;;;;;;5080856;28;11560;-70
2022/12/12 13:19:43;;;;;;;;;26.00;24.25;;;;;;;;5086265;28;11529;-70
2022/12/12 13:22:15;;;;;;;;;25.25;23.00;;;;;;;;5082331;28;11749;-70
2022/12/12 13:24:48;;;;;;;;;30.25;29.00;;;;;;;;5079534;28;11586;-70
2022/12/12 13:27:19;;;;;;;;;30.25;27.25;;;;;;;;5080338;28;11683;-71
2022/12/12 13:29:52;;;;;;;;;30.25;26.75;;;;;;;;5080597;28;11707;-71
2022/12/12 13:32:59;;;;;;;;;30.25;28.00;;;;;;;;5081558;28;11550;-70
2022/12/12 13:35:30;;;;;;;;;30.50;28.75;;;;;;;;5072191;28;11514;-70
2022/12/12 13:37:58;;;;;;;;;28.50;28.00;;;;;;;;5082951;28;12374;-70
2022/12/12 13:40:30;;;;;;;;;31.25;29.00;;;;;;;;5084494;28;11570;-70
2022/12/12 13:42:59;;;;;;;;;27.25;22.75;;;;;;;;5079960;28;11630;-70
2022/12/12 13:45:37;;;;;;;;;26.75;21.25;;;;;;;;5085263;28;11557;-70
2022/12/12 13:48:10;;;;;;;;;32.00;23.75;;;;;;;;5081435;28;11742;-70
2022/12/12 13:50:37;;;;;;;;;32.00;27.00;;;;;;;;5080072;28;11564;-71
2022/12/12 13:53:18;;;;;;;;;20.75;19.75;;;;;;;;5079455;28;11549;-70
2022/12/12 13:55:46;;;;;;;;;19.50;19.50;;;;;;;;5083805;28;11552;-71
2022/12/12 13:58:33;;;;;;;;;28.75;23.25;;;;;;;;5082332;28;11738;-70
2022/12/12 14:01:42;;;;;;;;;24.25;23.25;;;;;;;;5082238;28;11529;-70
2022/12/12 14:07:05;;;;;;;;;31.00;24.50;;;;;;;;5038970;27;13642;-72
2022/12/12 14:09:37;;;;;;;;;23.75;22.00;;;;;;;;5086028;27;11653;-73
2022/12/12 14:12:05;;;;;;;;;26.75;24.75;;;;;;;;5040171;27;11597;-72
2022/12/12 14:14:33;;;;;;;;;27.75;22.75;;;;;;;;5067110;27;11565;-71
2022/12/12 14:17:02;;;;;;;;;26.00;22.25;;;;;;;;5052524;27;11545;-71
2022/12/12 14:19:34;;;;;;;;;33.75;23.75;;;;;;;;5062690;27;11633;-71
2022/12/12 14:22:03;;;;;;;;;31.50;25.75;;;;;;;;5080882;27;11507;-71
2022/12/12 14:24:51;;;;;;;;;25.25;23.25;;;;;;;;5053180;27;11670;-72
2022/12/12 14:27:21;;;;;;;;;27.50;25.25;;;;;;;;5040804;27;11513;-71
2022/12/12 14:29:48;;;;;;;;;30.00;22.25;;;;;;;;5058214;27;11515;-71
2022/12/12 14:32:44;;;;;;;;;27.50;23.50;;;;;;;;5041850;27;11547;-71
2022/12/12 14:35:25;;;;;;;;;30.00;23.00;;;;;;;;5060842;27;12270;-71
2022/12/12 14:38:02;;;;;;;;;25.50;21.75;;;;;;;;5054381;27;11550;-72
2022/12/12 14:40:33;;;;;;;;;19.00;16.75;;;;;;;;5081022;27;12335;-71
2022/12/12 14:43:06;;;;;;;;;23.50;21.25;;;;;;;;5074337;27;11540;-71
2022/12/12 14:45:36;;;;;;;;;22.25;20.75;;;;;;;;5069474;27;11559;-71
2022/12/12 14:48:12;;;;;;;;;23.50;20.75;;;;;;;;5082314;27;12338;-71
2022/12/12 14:50:43;;;;;;;;;28.25;23.00;;;;;;;;5060039;27;11697;-71
2022/12/12 14:53:17;;;;;;;;;20.50;19.00;;;;;;;;5072552;27;11590;-71
2022/12/12 14:55:51;;;;;;;;;32.33;27.67;;;;;;;;5049736;27;11558;-72
2022/12/12 14:58:26;;;;;;;;;30.50;24.00;;;;;;;;5072295;27;11706;-71
2022/12/12 15:00:55;;;;;;;;;33.67;33.67;;;;;;;;5074134;27;11570;-72
2022/12/12 15:03:30;;;;;;;;;32.33;30.67;;;;;;;;5101286;27;12312;-71
2022/12/12 15:06:30;;;;;;;;;31.33;26.33;;;;;;;;5041275;27;11622;-71
2022/12/12 15:09:17;;;;;;;;;36.33;32.00;;;;;;;;5073434;27;11570;-72
2022/12/12 15:11:45;;;;;;;;;48.33;34.33;;;;;;;;5065929;27;11660;-71
2022/12/12 15:14:22;;;;;;;;;40.33;33.33;;;;;;;;5070923;27;8825;-71